Flight Track Log - Related Links

Times and Time Zones

All times are in EDT time to prevent confusion due to time zone crossing. See the N624LL flight status page for this flight to view local times or setup timezone preferences in your user account.

Time Position Orientation Groundspeed Altitude Reporting Facility
EDT Latitude Longitude Course Direction KTS MPH feet Rate Location/Type
Thu 06:51:34 PM 41.9275 -71.4886 318° Northwest 86 99 900  Level Boston Center
Thu 06:52:34 PM 41.9528 -71.5106 327° Northwest 107 123 2,000 1,052 Climbing Boston Center
Thu 06:54:48 PM 42.0000 -71.4833 23° Northeast 100 115 4,300 1,026 Climbing KA90
Thu 06:55:00 PM 42.1303 -71.7195 318° Northwest  Level FlightAware Approximate
Thu 06:55:47 PM 42.0333 -71.4667 20° North 103 119 5,300  Level KA90
Thu 06:56:00 PM 42.1657 -71.7619 318° Northwest  Level FlightAware Approximate
Thu 06:56:41 PM 42.0500 -71.4500 37° Northeast 96 110 6,100  Level KA90
Thu 06:57:47 PM 42.0833 -71.4333 20° North 96 110 7,000 429 Climbing KA90
Thu 06:58:47 PM 42.1167 -71.4167 20° North 129 148 7,000  Level KA90
Thu 06:59:48 PM 42.1500 -71.4000 20° North 130 150 7,000  Level KA90
Thu 07:00:48 PM 42.1833 -71.3667 37° Northeast 132 152 7,000  Level KA90
Thu 07:01:48 PM 42.2167 -71.3500 20° North 126 145 7,000  Level KA90
Thu 07:02:47 PM 42.2333 -71.3333 37° Northeast 123 142 7,000  Level KA90
Thu 07:03:48 PM 42.2667 -71.3167 20° North 125 144 7,000  Level KA90
Thu 07:04:48 PM 42.3000 -71.3000 20° North 127 146 7,000  Level KA90
Thu 07:05:48 PM 42.3333 -71.2833 20° North 127 146 7,000  Level KA90
Thu 07:06:48 PM 42.3667 -71.2500 36° Northeast 128 147 7,000  Level KA90
Thu 07:07:53 PM 42.4000 -71.2333 20° North 124 143 7,000  Level KA90
Thu 07:08:47 PM 42.4333 -71.2167 20° North 124 143 7,000  Level KA90
Thu 07:09:53 PM 42.4667 -71.2000 20° North 123 142 7,000  Level KA90
Thu 07:10:59 PM 42.5000 -71.1833 20° North 123 142 7,000 -238 Level KA90
Thu 07:11:59 PM 42.5333 -71.1667 20° North 132 152 6,500 -550 Descending KA90
Thu 07:12:59 PM 42.5667 -71.1333 36° Northeast 129 148 5,900 -619 Descending KA90
Thu 07:14:05 PM 42.6000 -71.1167 20° North 133 153 5,200 -614 Descending KA90
Thu 07:15:06 PM 42.6333 -71.1000 20° North 135 155 4,600 -600 Descending KA90
Thu 07:16:05 PM 42.6667 -71.0667 36° Northeast 141 162 4,000 -316 Descending KA90
Thu 07:17:00 PM 42.7000 -71.0500 20° North 138 159 4,000  Level KA90
Thu 07:18:05 PM 42.7333 -71.0333 20° North 129 148 4,000 -50 Level KA90
Thu 07:19:00 PM 42.7667 -71.0167 20° North 128 147 3,900  Descending KA90
Thu 07:20:05 PM 42.8000 -70.9833 36° Northeast 123 142 4,000 48 Climbing KA90
Thu 07:21:05 PM 42.8333 -70.9667 20° North 124 143 4,000 -250 Level KA90
Thu 07:22:05 PM 42.8667 -70.9500 20° North 131 151 3,500 -381 Descending KA90
Thu 07:23:11 PM 42.9000 -70.9333 20° North 134 154 3,200 -331 Descending KA90
Thu 07:24:12 PM 42.9333 -70.9167 20° North 131 151 2,800 -495 Descending KA90
Thu 07:25:00 PM 42.9667 -70.9000 20° North 132 152 2,300 -556 Descending KA90
Thu 07:26:00 PM 43.0000 -70.8833 20° North 142 163 1,800 -400 Descending KA90
Thu 07:27:00 PM 43.0167 -70.8667 36° Northeast 104 120 1,500 -409 Descending KA90
Thu 07:28:12 PM 43.0333 -70.8333 56° Northeast 90 104 900 -500 Descending KA90
Thu 07:30:00 PM 43.0667 -70.8167 24° Northeast  Level FlightAware Approximate

Login

Don't have an account? Register now (free) for customized features, flight alerts, and more!